Cape May, New Jersey
Current Conditions -  °F | °C
As of 5:55 AM on Friday 19 Dec 2014 (Local Time) from KWWD Reporting Station
Overcast Overcast  
Wind Chill: 29°   Ceiling: 11000
Heat Index: 36°   Visibility: 10mi
Dew Point: 25°   Wind: 9mph
Humidity: 65%   Direction: 300°WNW
Pressure: 30.05"   Gusts: 17mph
Location:  38.94°N, 74.91°W
Report Text: KWWD 191055Z AUTO 30008G15KT 10SM FEW038 OVC110 02/M04 A3005 RMK AO1
Loading
Personal Weather Stations






























Interactive Weather Map New forecast layout! Learn more

10-Day Weather Forecast

Advertisements
Track Severe Weather on mobile